Time;durP1;ratioP1;P1;durP2;ratioP2;P2;SDS_P1;SDS_P2;PMS_P1;PMS_P2;Temp;Humidity;BMP_temperature;BMP_pressure;BME280_temperature;BME280_humidity;BME280_pressure;Samples;Min_cycle;Max_cycle;Signal;HPM_P1;HPM_P2
2023/01/22 00:01:41;;;;;;;0.20;0.20;;;;;;;;;;4930195;28;20133;-75
2023/01/22 00:04:08;;;;;;;0.20;0.20;;;;;;;;;;4931733;28;20101;-77
2023/01/22 00:06:34;;;;;;;0.20;0.20;;;;;;;;;;4928820;28;20058;-78
2023/01/22 00:09:02;;;;;;;0.20;0.20;;;;;;;;;;4929883;28;20078;-75
2023/01/22 00:11:29;;;;;;;0.20;0.20;;;;;;;;;;4929378;28;20814;-75
2023/01/22 00:13:55;;;;;;;0.20;0.20;;;;;;;;;;4930404;28;20055;-78
2023/01/22 00:16:21;;;;;;;0.20;0.20;;;;;;;;;;4930937;28;20110;-75
2023/01/22 00:18:47;;;;;;;0.20;0.20;;;;;;;;;;4931498;28;20746;-75
2023/01/22 00:21:13;;;;;;;0.20;0.20;;;;;;;;;;4928275;28;20058;-75
2023/01/22 00:23:40;;;;;;;0.20;0.20;;;;;;;;;;4931827;28;20074;-76
2023/01/22 00:26:11;;;;;;;0.20;0.20;;;;;;;;;;4910220;28;20065;-75
2023/01/22 00:28:40;;;;;;;0.20;0.20;;;;;;;;;;4928606;28;20938;-75
2023/01/22 00:31:06;;;;;;;0.15;0.15;;;;;;;;;;4929919;28;20084;-76
2023/01/22 00:33:32;;;;;;;0.20;0.20;;;;;;;;;;4925531;28;20085;-75
2023/01/22 00:36:09;;;;;;;0.13;0.13;;;;;;;;;;4931079;28;20537;-76
2023/01/22 00:38:35;;;;;;;0.20;0.20;;;;;;;;;;4934101;28;20050;-76
2023/01/22 00:41:01;;;;;;;0.20;0.20;;;;;;;;;;4930981;28;20050;-76
2023/01/22 00:43:28;;;;;;;0.20;0.20;;;;;;;;;;4929693;28;20090;-76
2023/01/22 00:45:54;;;;;;;0.20;0.20;;;;;;;;;;4923449;28;20494;-76
2023/01/22 00:48:20;;;;;;;0.20;0.20;;;;;;;;;;4922997;28;20039;-77
2023/01/22 00:50:46;;;;;;;0.20;0.20;;;;;;;;;;4922744;28;20047;-76
2023/01/22 00:53:12;;;;;;;0.20;0.20;;;;;;;;;;4927145;28;20053;-76
2023/01/22 00:55:38;;;;;;;0.20;0.20;;;;;;;;;;4928324;28;20109;-76
2023/01/22 00:58:04;;;;;;;0.20;0.20;;;;;;;;;;4930462;28;20213;-76
2023/01/22 01:00:30;;;;;;;0.17;0.17;;;;;;;;;;4933243;28;20055;-78
2023/01/22 01:05:40;;;;;;;0.20;0.20;;;;;;;;;;4921122;28;20439;-76
2023/01/22 01:08:06;;;;;;;0.20;0.20;;;;;;;;;;4932647;28;20050;-75
2023/01/22 01:10:32;;;;;;;0.20;0.20;;;;;;;;;;4933390;28;20046;-77
2023/01/22 01:12:58;;;;;;;0.20;0.20;;;;;;;;;;4931327;28;20074;-77
2023/01/22 01:15:24;;;;;;;0.20;0.20;;;;;;;;;;4934684;28;20138;-78
2023/01/22 01:17:50;;;;;;;0.10;0.10;;;;;;;;;;4932742;28;20102;-78
2023/01/22 01:20:16;;;;;;;0.20;0.20;;;;;;;;;;4930824;28;20587;-77
2023/01/22 01:22:42;;;;;;;0.20;0.20;;;;;;;;;;4932758;28;20069;-76
2023/01/22 01:25:08;;;;;;;0.20;0.20;;;;;;;;;;4933349;28;20062;-76
2023/01/22 01:27:34;;;;;;;0.20;0.20;;;;;;;;;;4933106;28;20046;-76
2023/01/22 01:30:01;;;;;;;0.20;0.20;;;;;;;;;;4935347;28;20542;-76
2023/01/22 01:32:27;;;;;;;0.20;0.20;;;;;;;;;;4935470;28;20051;-75
2023/01/22 01:34:53;;;;;;;0.20;0.20;;;;;;;;;;4929545;28;20070;-76
2023/01/22 01:37:19;;;;;;;0.13;0.13;;;;;;;;;;4928594;28;20662;-75
2023/01/22 01:39:46;;;;;;;0.20;0.20;;;;;;;;;;4932404;28;20050;-76
2023/01/22 01:42:12;;;;;;;0.20;0.20;;;;;;;;;;4930360;28;20159;-78
2023/01/22 01:44:39;;;;;;;0.20;0.20;;;;;;;;;;4930864;28;20569;-75
2023/01/22 01:47:14;;;;;;;0.10;0.10;;;;;;;;;;4929880;28;20909;-75
2023/01/22 01:49:47;;;;;;;0.20;0.20;;;;;;;;;;4934266;28;20503;-74
2023/01/22 01:52:14;;;;;;;0.20;0.20;;;;;;;;;;4930252;28;20709;-75
2023/01/22 01:54:42;;;;;;;0.20;0.20;;;;;;;;;;4930093;28;20042;-75
2023/01/22 01:57:13;;;;;;;0.20;0.20;;;;;;;;;;4928510;28;20997;-75
2023/01/22 01:59:39;;;;;;;0.10;0.10;;;;;;;;;;4926701;28;20134;-75
2023/01/22 02:02:05;;;;;;;0.20;0.20;;;;;;;;;;4923543;28;21200;-75
2023/01/22 02:04:31;;;;;;;0.20;0.20;;;;;;;;;;4931119;28;20047;-75
2023/01/22 02:06:57;;;;;;;0.20;0.20;;;;;;;;;;4933040;28;20114;-75
2023/01/22 02:09:23;;;;;;;0.10;0.10;;;;;;;;;;4930968;28;20062;-75
2023/01/22 02:11:51;;;;;;;0.20;0.20;;;;;;;;;;4930007;28;20550;-74
2023/01/22 02:14:18;;;;;;;0.20;0.20;;;;;;;;;;4930883;28;20177;-75
2023/01/22 02:16:44;;;;;;;0.10;0.10;;;;;;;;;;4930145;28;20057;-75
2023/01/22 02:19:11;;;;;;;0.20;0.20;;;;;;;;;;4931133;28;20051;-75
2023/01/22 02:21:41;;;;;;;0.20;0.20;;;;;;;;;;4929728;28;20146;-75
2023/01/22 02:24:11;;;;;;;0.17;0.17;;;;;;;;;;4930864;28;20050;-75
2023/01/22 02:26:37;;;;;;;0.20;0.20;;;;;;;;;;4930141;28;20964;-75
2023/01/22 02:29:06;;;;;;;0.20;0.20;;;;;;;;;;4930691;28;20527;-75
2023/01/22 02:31:32;;;;;;;0.20;0.20;;;;;;;;;;4930069;28;20209;-75
2023/01/22 02:34:00;;;;;;;0.20;0.20;;;;;;;;;;4931177;28;20070;-75
2023/01/22 02:36:27;;;;;;;0.10;0.10;;;;;;;;;;4933255;28;20143;-77
2023/01/22 02:38:53;;;;;;;0.20;0.20;;;;;;;;;;4935510;28;20502;-75
2023/01/22 02:41:19;;;;;;;0.20;0.20;;;;;;;;;;4931316;28;20051;-75
2023/01/22 02:43:45;;;;;;;0.20;0.20;;;;;;;;;;4933923;28;20417;-76
2023/01/22 02:46:11;;;;;;;0.20;0.20;;;;;;;;;;4930756;28;20055;-76
2023/01/22 02:48:37;;;;;;;0.10;0.10;;;;;;;;;;4927500;28;20051;-76
2023/01/22 02:51:03;;;;;;;0.10;0.10;;;;;;;;;;4931392;28;20047;-76
2023/01/22 02:53:29;;;;;;;0.20;0.20;;;;;;;;;;4928490;28;20050;-76
2023/01/22 02:55:55;;;;;;;0.20;0.20;;;;;;;;;;4920647;28;20058;-76
2023/01/22 02:58:21;;;;;;;0.20;0.20;;;;;;;;;;4932568;28;20069;-76
2023/01/22 03:00:47;;;;;;;0.20;0.20;;;;;;;;;;4930319;28;20053;-76
2023/01/22 03:03:17;;;;;;;0.20;0.20;;;;;;;;;;4926572;28;20885;-74
2023/01/22 03:05:44;;;;;;;0.20;0.20;;;;;;;;;;4926887;28;20306;-75
2023/01/22 03:08:10;;;;;;;0.20;0.20;;;;;;;;;;4924970;28;20490;-75
2023/01/22 03:10:36;;;;;;;0.20;0.20;;;;;;;;;;4927873;28;20058;-77
2023/01/22 03:21:42;;;;;;;0.20;0.20;;;;;;;;;;4928123;28;20059;-77
2023/01/22 03:24:08;;;;;;;0.20;0.20;;;;;;;;;;4931425;28;20050;-76
2023/01/22 03:26:35;;;;;;;0.10;0.10;;;;;;;;;;4932759;28;20697;-77
2023/01/22 03:29:01;;;;;;;0.20;0.20;;;;;;;;;;4930833;28;20049;-77
2023/01/22 03:31:27;;;;;;;0.15;0.15;;;;;;;;;;4930720;28;20149;-77
2023/01/22 03:33:53;;;;;;;0.20;0.20;;;;;;;;;;4930675;28;20620;-77
2023/01/22 03:36:19;;;;;;;0.10;0.10;;;;;;;;;;4927382;28;20076;-77
2023/01/22 03:38:45;;;;;;;0.10;0.10;;;;;;;;;;4930065;28;20046;-76
2023/01/22 03:41:13;;;;;;;0.10;0.10;;;;;;;;;;4931916;28;20059;-75
2023/01/22 03:43:39;;;;;;;0.20;0.20;;;;;;;;;;4933203;28;20129;-75
2023/01/22 03:46:12;;;;;;;0.20;0.20;;;;;;;;;;4930090;28;20049;-75
2023/01/22 03:48:39;;;;;;;0.20;0.20;;;;;;;;;;4925285;28;20042;-76
2023/01/22 03:51:15;;;;;;;0.20;0.20;;;;;;;;;;4927392;28;20091;-76
2023/01/22 03:53:41;;;;;;;0.20;0.20;;;;;;;;;;4926305;28;20050;-76
2023/01/22 03:56:12;;;;;;;0.10;0.10;;;;;;;;;;4930336;28;20105;-75
2023/01/22 03:58:38;;;;;;;0.20;0.20;;;;;;;;;;4926614;28;20053;-76
2023/01/22 04:01:05;;;;;;;0.10;0.10;;;;;;;;;;4929492;28;20121;-76
2023/01/22 04:03:32;;;;;;;0.20;0.20;;;;;;;;;;4928492;28;20097;-76
2023/01/22 04:05:59;;;;;;;0.20;0.20;;;;;;;;;;4929427;28;20058;-75
2023/01/22 04:08:26;;;;;;;0.20;0.20;;;;;;;;;;4930305;28;20058;-76
2023/01/22 04:10:52;;;;;;;0.20;0.20;;;;;;;;;;4926390;28;20059;-76
2023/01/22 04:13:18;;;;;;;0.20;0.20;;;;;;;;;;4930976;28;20642;-76
2023/01/22 04:15:44;;;;;;;0.20;0.20;;;;;;;;;;4928929;28;20112;-75
2023/01/22 04:18:11;;;;;;;0.20;0.20;;;;;;;;;;4928427;28;20525;-75
2023/01/22 04:20:37;;;;;;;0.15;0.15;;;;;;;;;;4926010;28;20535;-75
2023/01/22 04:23:03;;;;;;;0.10;0.10;;;;;;;;;;4928673;28;20046;-75
2023/01/22 04:25:29;;;;;;;0.20;0.20;;;;;;;;;;4929867;28;20055;-75
2023/01/22 04:27:55;;;;;;;0.20;0.20;;;;;;;;;;4927441;28;20138;-75
2023/01/22 04:30:21;;;;;;;0.20;0.20;;;;;;;;;;4927411;28;20047;-75
2023/01/22 04:32:47;;;;;;;0.20;0.20;;;;;;;;;;4921264;28;20059;-75
2023/01/22 04:35:13;;;;;;;0.20;0.20;;;;;;;;;;4916114;28;20494;-75
2023/01/22 04:37:39;;;;;;;0.10;0.10;;;;;;;;;;4935243;28;20430;-75
2023/01/22 04:40:05;;;;;;;0.10;0.10;;;;;;;;;;4933256;28;20070;-75
2023/01/22 04:42:32;;;;;;;0.20;0.20;;;;;;;;;;4917600;28;20491;-74
2023/01/22 04:44:58;;;;;;;0.10;0.10;;;;;;;;;;4934268;28;20541;-76
2023/01/22 04:47:24;;;;;;;0.20;0.20;;;;;;;;;;4931869;28;20149;-77
2023/01/22 04:49:50;;;;;;;0.10;0.10;;;;;;;;;;4929624;28;20129;-77
2023/01/22 04:52:18;;;;;;;0.20;0.20;;;;;;;;;;4929184;28;20097;-75
2023/01/22 04:54:44;;;;;;;0.20;0.20;;;;;;;;;;4934483;28;20049;-77
2023/01/22 04:57:10;;;;;;;0.20;0.20;;;;;;;;;;4933665;28;20054;-77
2023/01/22 04:59:36;;;;;;;0.10;0.10;;;;;;;;;;4932094;28;20054;-77
2023/01/22 05:02:03;;;;;;;0.20;0.20;;;;;;;;;;4932416;28;20065;-77
2023/01/22 05:04:29;;;;;;;0.13;0.13;;;;;;;;;;4934141;28;20279;-76
2023/01/22 05:06:55;;;;;;;0.20;0.20;;;;;;;;;;4931993;28;20078;-77
2023/01/22 05:09:23;;;;;;;0.20;0.20;;;;;;;;;;4933643;28;20153;-77
2023/01/22 05:11:49;;;;;;;0.20;0.20;;;;;;;;;;4932674;28;20102;-77
2023/01/22 05:14:15;;;;;;;0.20;0.20;;;;;;;;;;4926744;28;20756;-77
2023/01/22 05:16:41;;;;;;;0.10;0.10;;;;;;;;;;4932938;28;20570;-77
2023/01/22 05:19:07;;;;;;;0.10;0.10;;;;;;;;;;4930695;28;20043;-77
2023/01/22 05:21:33;;;;;;;0.10;0.10;;;;;;;;;;4933367;28;20065;-77
2023/01/22 05:23:59;;;;;;;0.20;0.20;;;;;;;;;;4931989;28;20820;-77
2023/01/22 05:26:25;;;;;;;0.10;0.10;;;;;;;;;;4929453;28;20070;-77
2023/01/22 05:28:51;;;;;;;0.10;0.10;;;;;;;;;;4933404;28;20047;-77
2023/01/22 05:31:17;;;;;;;0.20;0.20;;;;;;;;;;4930512;28;20054;-77
2023/01/22 05:33:43;;;;;;;0.20;0.20;;;;;;;;;;4928115;28;20142;-77
2023/01/22 05:36:11;;;;;;;0.20;0.20;;;;;;;;;;4925710;28;20042;-77
2023/01/22 05:38:37;;;;;;;0.10;0.10;;;;;;;;;;4933676;28;20051;-78
2023/01/22 05:41:03;;;;;;;0.20;0.20;;;;;;;;;;4930726;28;20062;-78
2023/01/22 05:43:29;;;;;;;0.20;0.20;;;;;;;;;;4930260;28;20070;-75
2023/01/22 05:45:59;;;;;;;0.20;0.20;;;;;;;;;;4920415;28;20098;-77
2023/01/22 05:48:25;;;;;;;0.20;0.20;;;;;;;;;;4931372;28;20108;-75
2023/01/22 05:50:52;;;;;;;0.20;0.20;;;;;;;;;;4923456;28;20046;-75
2023/01/22 05:53:18;;;;;;;0.20;0.20;;;;;;;;;;4933328;28;20038;-75
2023/01/22 05:55:44;;;;;;;0.20;0.20;;;;;;;;;;4929819;28;20287;-75
2023/01/22 05:58:10;;;;;;;0.10;0.10;;;;;;;;;;4932132;28;20396;-76
2023/01/22 06:00:36;;;;;;;0.20;0.20;;;;;;;;;;4928737;28;20987;-75
2023/01/22 06:03:02;;;;;;;0.20;0.20;;;;;;;;;;4932711;28;20518;-75
2023/01/22 06:05:28;;;;;;;0.20;0.20;;;;;;;;;;4930858;28;20451;-76
2023/01/22 06:07:54;;;;;;;0.20;0.20;;;;;;;;;;4932987;28;20231;-76
2023/01/22 06:10:20;;;;;;;0.20;0.20;;;;;;;;;;4930346;28;20693;-75
2023/01/22 06:12:46;;;;;;;0.20;0.20;;;;;;;;;;4934183;28;20047;-76
2023/01/22 06:15:12;;;;;;;0.20;0.20;;;;;;;;;;4933077;28;20062;-76
2023/01/22 06:17:38;;;;;;;0.20;0.20;;;;;;;;;;4929754;28;20050;-76
2023/01/22 06:20:05;;;;;;;0.15;0.15;;;;;;;;;;4929598;28;20074;-75
2023/01/22 06:22:31;;;;;;;0.20;0.20;;;;;;;;;;4931593;28;20576;-77
2023/01/22 06:24:57;;;;;;;0.20;0.20;;;;;;;;;;4933226;28;20053;-75
2023/01/22 06:27:23;;;;;;;0.20;0.20;;;;;;;;;;4931644;28;20065;-77
2023/01/22 06:29:49;;;;;;;0.20;0.20;;;;;;;;;;4928853;28;20086;-77
2023/01/22 06:32:15;;;;;;;0.17;0.17;;;;;;;;;;4933225;28;20057;-78
2023/01/22 06:34:41;;;;;;;0.20;0.20;;;;;;;;;;4931905;28;20047;-76
2023/01/22 06:37:07;;;;;;;0.20;0.20;;;;;;;;;;4929550;28;20058;-75
2023/01/22 06:39:33;;;;;;;0.20;0.20;;;;;;;;;;4927853;28;20110;-77
2023/01/22 06:41:59;;;;;;;0.20;0.20;;;;;;;;;;4930983;28;20047;-76
2023/01/22 06:44:25;;;;;;;0.20;0.20;;;;;;;;;;4930396;28;20503;-76
2023/01/22 06:46:51;;;;;;;0.20;0.20;;;;;;;;;;4930804;28;20129;-75
2023/01/22 06:49:17;;;;;;;0.20;0.20;;;;;;;;;;4931298;28;20085;-76
2023/01/22 06:51:43;;;;;;;0.15;0.15;;;;;;;;;;4921545;28;20643;-76
2023/01/22 06:54:12;;;;;;;0.20;0.20;;;;;;;;;;4930704;28;20047;-75
2023/01/22 06:56:38;;;;;;;0.20;0.20;;;;;;;;;;4927669;28;20050;-75
2023/01/22 06:59:04;;;;;;;0.10;0.10;;;;;;;;;;4932246;28;20050;-75
2023/01/22 07:01:30;;;;;;;0.20;0.20;;;;;;;;;;4929435;28;20113;-75
2023/01/22 07:03:56;;;;;;;0.17;0.17;;;;;;;;;;4927408;28;20584;-76
2023/01/22 07:06:22;;;;;;;0.20;0.20;;;;;;;;;;4932876;28;20086;-75
2023/01/22 07:08:48;;;;;;;0.20;0.20;;;;;;;;;;4930393;28;20937;-76
2023/01/22 07:11:15;;;;;;;0.20;0.20;;;;;;;;;;4928678;28;20078;-71
2023/01/22 07:13:41;;;;;;;0.20;0.20;;;;;;;;;;4927664;28;20055;-70
2023/01/22 07:16:08;;;;;;;0.20;0.20;;;;;;;;;;4925101;28;20380;-71
2023/01/22 07:18:34;;;;;;;0.15;0.15;;;;;;;;;;4928072;28;20067;-70
2023/01/22 07:21:01;;;;;;;0.20;0.20;;;;;;;;;;4926786;28;20050;-71
2023/01/22 07:23:27;;;;;;;0.20;0.20;;;;;;;;;;4930265;28;20296;-71
2023/01/22 07:25:53;;;;;;;0.20;0.20;;;;;;;;;;4931764;28;20082;-71
2023/01/22 07:28:19;;;;;;;0.20;0.20;;;;;;;;;;4931154;28;20494;-71
2023/01/22 07:30:45;;;;;;;0.10;0.10;;;;;;;;;;4929497;28;20055;-71
2023/01/22 07:33:12;;;;;;;0.20;0.20;;;;;;;;;;4929141;28;20059;-71
2023/01/22 07:35:38;;;;;;;0.20;0.20;;;;;;;;;;4932388;28;20042;-72
2023/01/22 07:38:04;;;;;;;0.10;0.10;;;;;;;;;;4931794;28;22002;-72
2023/01/22 07:40:31;;;;;;;0.10;0.10;;;;;;;;;;4929958;28;20647;-72
2023/01/22 07:42:57;;;;;;;0.20;0.20;;;;;;;;;;4929665;28;20591;-73
2023/01/22 07:45:24;;;;;;;0.10;0.10;;;;;;;;;;4932592;28;20542;-71
2023/01/22 07:47:57;;;;;;;0.10;0.10;;;;;;;;;;4929369;28;20043;-71
2023/01/22 07:50:24;;;;;;;0.10;0.10;;;;;;;;;;4928074;28;20051;-73
2023/01/22 07:52:50;;;;;;;0.10;0.10;;;;;;;;;;4923073;28;20054;-70
2023/01/22 07:55:16;;;;;;;0.20;0.20;;;;;;;;;;4924119;28;20376;-72
2023/01/22 07:57:42;;;;;;;0.20;0.20;;;;;;;;;;4930546;28;20074;-70
2023/01/22 08:00:09;;;;;;;0.20;0.20;;;;;;;;;;4927950;28;20046;-73
2023/01/22 08:02:36;;;;;;;0.20;0.20;;;;;;;;;;4927596;28;20154;-73
2023/01/22 08:05:02;;;;;;;0.20;0.20;;;;;;;;;;4926318;28;20597;-73
2023/01/22 08:07:29;;;;;;;0.10;0.10;;;;;;;;;;4928792;28;20050;-71
2023/01/22 08:09:55;;;;;;;0.20;0.20;;;;;;;;;;4929689;28;20038;-71
2023/01/22 08:12:21;;;;;;;0.20;0.20;;;;;;;;;;4930935;28;20101;-72
2023/01/22 08:14:47;;;;;;;0.20;0.20;;;;;;;;;;4929028;28;20047;-72
2023/01/22 08:17:14;;;;;;;0.20;0.20;;;;;;;;;;4930356;28;20059;-71
2023/01/22 08:19:40;;;;;;;0.20;0.20;;;;;;;;;;4926784;28;20078;-71
2023/01/22 08:22:06;;;;;;;0.10;0.10;;;;;;;;;;4930104;28;20082;-71
2023/01/22 08:24:33;;;;;;;0.10;0.10;;;;;;;;;;4925809;28;20166;-70
2023/01/22 08:26:59;;;;;;;0.20;0.20;;;;;;;;;;4929140;28;20046;-71
2023/01/22 08:29:25;;;;;;;0.10;0.10;;;;;;;;;;4932132;28;20605;-73
2023/01/22 08:31:54;;;;;;;0.13;0.13;;;;;;;;;;4923194;28;20417;-71
2023/01/22 08:34:21;;;;;;;0.10;0.10;;;;;;;;;;4919016;28;20038;-73
2023/01/22 08:36:47;;;;;;;0.20;0.20;;;;;;;;;;4916119;28;20082;-71
2023/01/22 08:39:13;;;;;;;0.20;0.20;;;;;;;;;;4925835;28;20438;-72
2023/01/22 08:41:40;;;;;;;0.20;0.20;;;;;;;;;;4919978;28;20130;-71
2023/01/22 08:44:06;;;;;;;0.20;0.20;;;;;;;;;;4925658;28;20049;-71
2023/01/22 08:46:34;;;;;;;0.20;0.20;;;;;;;;;;4928289;28;20105;-71
2023/01/22 08:49:02;;;;;;;0.20;0.20;;;;;;;;;;4922670;28;20217;-71
2023/01/22 08:51:28;;;;;;;0.20;0.20;;;;;;;;;;4927718;28;20046;-71
2023/01/22 08:53:54;;;;;;;0.20;0.20;;;;;;;;;;4918479;28;20039;-71
2023/01/22 08:56:20;;;;;;;0.13;0.13;;;;;;;;;;4923103;28;20576;-70
2023/01/22 08:58:50;;;;;;;0.20;0.20;;;;;;;;;;4929419;28;20141;-70
2023/01/22 09:01:16;;;;;;;0.15;0.15;;;;;;;;;;4926680;28;20086;-71
2023/01/22 09:03:43;;;;;;;0.20;0.20;;;;;;;;;;4927881;28;20129;-71
2023/01/22 09:06:09;;;;;;;0.20;0.20;;;;;;;;;;4925464;28;20059;-71
2023/01/22 09:08:35;;;;;;;0.20;0.20;;;;;;;;;;4920719;28;20038;-71
2023/01/22 09:11:02;;;;;;;0.20;0.20;;;;;;;;;;4929142;28;20549;-71
2023/01/22 09:13:28;;;;;;;0.20;0.20;;;;;;;;;;4929194;28;20051;-71
2023/01/22 09:15:56;;;;;;;0.20;0.20;;;;;;;;;;4928181;28;20062;-71
2023/01/22 09:18:22;;;;;;;0.20;0.20;;;;;;;;;;4928679;28;20066;-71
2023/01/22 09:20:48;;;;;;;0.20;0.20;;;;;;;;;;4932755;28;20097;-71
2023/01/22 09:23:14;;;;;;;0.10;0.10;;;;;;;;;;4934176;28;20365;-71
2023/01/22 09:25:40;;;;;;;0.20;0.20;;;;;;;;;;4931169;28;20059;-71
2023/01/22 09:28:08;;;;;;;0.20;0.20;;;;;;;;;;4931129;28;20050;-71
2023/01/22 09:30:35;;;;;;;0.20;0.20;;;;;;;;;;4932109;28;20566;-71
2023/01/22 09:33:01;;;;;;;0.20;0.20;;;;;;;;;;4927922;28;20050;-70
2023/01/22 09:35:27;;;;;;;0.10;0.10;;;;;;;;;;4932444;28;20046;-71
2023/01/22 09:37:54;;;;;;;0.20;0.20;;;;;;;;;;4924484;28;20419;-71
2023/01/22 09:40:28;;;;;;;0.20;0.20;;;;;;;;;;4928468;28;20051;-71
2023/01/22 09:43:00;;;;;;;0.20;0.20;;;;;;;;;;4930784;28;20141;-71
2023/01/22 09:45:26;;;;;;;0.10;0.10;;;;;;;;;;4929883;28;20233;-72
2023/01/22 09:47:58;;;;;;;0.20;0.20;;;;;;;;;;4922042;28;20054;-71
2023/01/22 09:50:29;;;;;;;0.10;0.10;;;;;;;;;;4927352;28;20150;-71
2023/01/22 09:52:57;;;;;;;0.20;0.20;;;;;;;;;;4930535;28;20518;-71
2023/01/22 09:55:24;;;;;;;0.20;0.20;;;;;;;;;;4923620;28;20527;-71
2023/01/22 09:57:55;;;;;;;0.10;0.10;;;;;;;;;;4935448;28;20050;-71
2023/01/22 10:00:23;;;;;;;0.20;0.20;;;;;;;;;;4929508;28;20912;-70
2023/01/22 10:03:12;;;;;;;0.20;0.20;;;;;;;;;;4929673;28;20577;-71
2023/01/22 10:05:41;;;;;;;0.10;0.10;;;;;;;;;;4920338;28;20092;-72
2023/01/22 10:08:14;;;;;;;0.10;0.10;;;;;;;;;;4930809;28;20129;-71
2023/01/22 10:10:40;;;;;;;0.10;0.10;;;;;;;;;;4929240;28;20097;-72
2023/01/22 10:13:15;;;;;;;0.20;0.20;;;;;;;;;;4931517;28;20046;-72
2023/01/22 10:15:41;;;;;;;0.20;0.20;;;;;;;;;;4931191;28;20042;-71
2023/01/22 10:18:15;;;;;;;0.20;0.20;;;;;;;;;;4917632;28;20530;-72
2023/01/22 10:20:41;;;;;;;0.10;0.10;;;;;;;;;;4933186;28;20047;-72
2023/01/22 10:23:14;;;;;;;0.10;0.10;;;;;;;;;;4933005;28;20055;-72
2023/01/22 10:25:41;;;;;;;0.10;0.10;;;;;;;;;;4915590;28;20070;-72
2023/01/22 10:28:07;;;;;;;0.20;0.20;;;;;;;;;;4930942;28;20055;-71
2023/01/22 10:30:34;;;;;;;0.20;0.20;;;;;;;;;;4931849;28;20062;-72
2023/01/22 10:33:02;;;;;;;0.20;0.20;;;;;;;;;;4928070;28;20553;-72
2023/01/22 10:35:30;;;;;;;0.20;0.20;;;;;;;;;;4932839;28;20140;-72
2023/01/22 10:37:57;;;;;;;0.20;0.20;;;;;;;;;;4930421;28;20058;-71
2023/01/22 10:40:33;;;;;;;0.20;0.20;;;;;;;;;;4930322;28;20062;-72
2023/01/22 10:43:05;;;;;;;0.10;0.10;;;;;;;;;;4928717;28;20439;-73
2023/01/22 10:45:31;;;;;;;0.10;0.10;;;;;;;;;;4931468;28;20629;-73
2023/01/22 10:48:12;;;;;;;0.20;0.20;;;;;;;;;;4932548;28;20047;-72
2023/01/22 10:50:38;;;;;;;0.20;0.20;;;;;;;;;;4929181;28;20407;-71
2023/01/22 10:53:04;;;;;;;0.10;0.10;;;;;;;;;;4933895;28;20153;-73
2023/01/22 10:55:32;;;;;;;0.10;0.10;;;;;;;;;;4925201;28;20093;-71
2023/01/22 10:58:01;;;;;;;0.10;0.10;;;;;;;;;;4933791;28;20050;-71
2023/01/22 11:00:38;;;;;;;0.10;0.10;;;;;;;;;;4930812;28;21126;-71
2023/01/22 11:03:33;;;;;;;0.20;0.20;;;;;;;;;;4927596;28;20378;-71
2023/01/22 11:06:20;;;;;;;0.20;0.20;;;;;;;;;;4918985;28;20090;-71
2023/01/22 11:08:55;;;;;;;0.10;0.10;;;;;;;;;;4932391;28;20529;-71
2023/01/22 11:11:26;;;;;;;0.20;0.20;;;;;;;;;;4929762;28;20051;-71
2023/01/22 11:14:00;;;;;;;0.10;0.10;;;;;;;;;;4926610;28;20046;-71
2023/01/22 11:16:28;;;;;;;0.20;0.20;;;;;;;;;;4927121;28;20046;-70
2023/01/22 11:18:57;;;;;;;0.10;0.10;;;;;;;;;;4928683;28;20467;-70
2023/01/22 11:21:34;;;;;;;0.20;0.20;;;;;;;;;;4926521;28;20058;-73
2023/01/22 11:24:09;;;;;;;0.10;0.10;;;;;;;;;;4926088;28;20594;-71
2023/01/22 11:26:54;;;;;;;0.10;0.10;;;;;;;;;;4926581;28;20620;-72
2023/01/22 11:29:38;;;;;;;0.20;0.20;;;;;;;;;;4926266;28;20055;-70
2023/01/22 11:32:21;;;;;;;0.20;0.20;;;;;;;;;;4927664;28;20047;-70
2023/01/22 11:34:47;;;;;;;0.20;0.20;;;;;;;;;;4927535;28;20038;-71
2023/01/22 11:37:39;;;;;;;0.20;0.20;;;;;;;;;;4923595;28;20066;-71
2023/01/22 11:40:05;;;;;;;0.10;0.10;;;;;;;;;;4914194;28;20059;-72
2023/01/22 11:42:31;;;;;;;0.17;0.17;;;;;;;;;;4923551;28;20188;-71
2023/01/22 11:45:01;;;;;;;0.10;0.10;;;;;;;;;;4927197;28;20110;-71
2023/01/22 11:47:30;;;;;;;0.10;0.10;;;;;;;;;;4929755;28;20125;-71
2023/01/22 11:50:04;;;;;;;0.10;0.10;;;;;;;;;;4930059;28;20055;-71
2023/01/22 11:52:30;;;;;;;0.20;0.20;;;;;;;;;;4930175;28;20317;-71
2023/01/22 11:55:07;;;;;;;0.10;0.10;;;;;;;;;;4927135;28;20271;-71
2023/01/22 11:57:36;;;;;;;0.10;0.10;;;;;;;;;;4926001;28;20136;-72
2023/01/22 12:00:15;;;;;;;0.20;0.20;;;;;;;;;;4922688;28;20055;-71
2023/01/22 12:02:51;;;;;;;0.10;0.10;;;;;;;;;;4925678;28;20655;-71
2023/01/22 12:05:17;;;;;;;0.10;0.10;;;;;;;;;;4922032;28;20204;-71
2023/01/22 12:07:44;;;;;;;0.17;0.17;;;;;;;;;;4929869;28;20046;-73
2023/01/22 12:10:28;;;;;;;0.20;0.20;;;;;;;;;;4930385;28;20589;-72
2023/01/22 12:12:58;;;;;;;0.13;0.13;;;;;;;;;;4930678;28;20035;-72
2023/01/22 12:15:36;;;;;;;0.15;0.15;;;;;;;;;;4926854;28;20403;-72
2023/01/22 12:18:08;;;;;;;0.20;0.20;;;;;;;;;;4928534;28;20051;-72
2023/01/22 12:20:53;;;;;;;0.10;0.10;;;;;;;;;;4929915;28;21037;-72
2023/01/22 12:23:24;;;;;;;0.20;0.20;;;;;;;;;;4932683;28;20046;-72
2023/01/22 12:25:54;;;;;;;0.20;0.20;;;;;;;;;;4930167;28;20596;-72
2023/01/22 12:28:43;;;;;;;0.10;0.10;;;;;;;;;;4929518;28;20968;-71
2023/01/22 12:31:18;;;;;;;0.20;0.20;;;;;;;;;;4928063;28;20474;-71
2023/01/22 12:33:44;;;;;;;0.20;0.20;;;;;;;;;;4930868;28;20085;-72
2023/01/22 12:36:12;;;;;;;0.20;0.20;;;;;;;;;;4930481;28;20134;-73
2023/01/22 12:38:53;;;;;;;0.10;0.10;;;;;;;;;;4931839;28;20335;-71
2023/01/22 12:41:19;;;;;;;;;;;;;;;;;;4930994;28;20195;-71
2023/01/22 12:43:53;;;;;;;0.20;0.20;;;;;;;;;;4929350;28;19926;-71
2023/01/22 12:46:24;;;;;;;0.10;0.10;;;;;;;;;;4927307;28;20574;-71
2023/01/22 12:48:59;;;;;;;0.10;0.10;;;;;;;;;;4932842;28;20541;-71
2023/01/22 12:51:40;;;;;;;0.15;0.15;;;;;;;;;;4929185;28;20050;-71
2023/01/22 12:54:20;;;;;;;0.10;0.10;;;;;;;;;;4929290;28;20051;-72
2023/01/22 12:56:47;;;;;;;0.10;0.10;;;;;;;;;;4935357;28;20042;-72
2023/01/22 12:59:43;;;;;;;0.10;0.10;;;;;;;;;;4934591;28;20084;-72
2023/01/22 13:02:34;;;;;;;0.10;0.10;;;;;;;;;;4920830;28;20059;-72
2023/01/22 13:05:19;;;;;;;0.10;0.10;;;;;;;;;;4930742;28;20051;-72
2023/01/22 13:07:45;;;;;;;0.20;0.20;;;;;;;;;;4936546;28;20058;-72
2023/01/22 13:10:20;;;;;;;0.20;0.20;;;;;;;;;;4932431;28;20408;-72
2023/01/22 13:12:49;;;;;;;0.20;0.20;;;;;;;;;;4933492;28;20461;-71
2023/01/22 13:15:26;;;;;;;0.10;0.10;;;;;;;;;;4931546;28;20789;-71
2023/01/22 13:17:55;;;;;;;0.13;0.13;;;;;;;;;;4933289;28;20455;-71
2023/01/22 13:20:22;;;;;;;0.20;0.20;;;;;;;;;;4929116;28;20050;-71
2023/01/22 13:22:48;;;;;;;0.10;0.10;;;;;;;;;;4932940;28;20917;-71
2023/01/22 13:25:25;;;;;;;0.17;0.17;;;;;;;;;;4932470;28;20314;-71
2023/01/22 13:27:51;;;;;;;0.20;0.20;;;;;;;;;;4931312;28;20251;-72
2023/01/22 13:30:22;;;;;;;0.10;0.10;;;;;;;;;;4934837;28;20407;-71
2023/01/22 13:32:48;;;;;;;0.10;0.10;;;;;;;;;;4915872;28;20514;-71
2023/01/22 13:35:15;;;;;;;0.20;0.20;;;;;;;;;;4925532;28;20604;-71
2023/01/22 13:37:44;;;;;;;0.20;0.20;;;;;;;;;;4933215;28;20048;-71
2023/01/22 13:40:14;;;;;;;0.17;0.17;;;;;;;;;;4934204;28;20553;-71
2023/01/22 13:42:43;;;;;;;0.20;0.20;;;;;;;;;;4932792;28;20121;-71
2023/01/22 13:45:14;;;;;;;0.20;0.20;;;;;;;;;;4928873;28;20259;-73
2023/01/22 13:47:40;;;;;;;;;;;;;;;;;;4927189;28;20636;-73
2023/01/22 13:50:16;;;;;;;0.10;0.10;;;;;;;;;;4935316;28;19926;-73
2023/01/22 13:52:43;;;;;;;0.10;0.10;;;;;;;;;;4932932;28;20130;-70
2023/01/22 13:55:15;;;;;;;0.10;0.10;;;;;;;;;;4924880;28;20771;-72
2023/01/22 13:57:45;;;;;;;0.20;0.20;;;;;;;;;;4931064;28;20063;-73
2023/01/22 14:00:38;;;;;;;0.20;0.20;;;;;;;;;;4929659;28;20494;-71
2023/01/22 14:03:18;;;;;;;0.10;0.10;;;;;;;;;;4931153;28;20113;-70
2023/01/22 14:05:44;;;;;;;0.20;0.20;;;;;;;;;;4928147;28;20490;-70
2023/01/22 14:08:11;;;;;;;0.20;0.20;;;;;;;;;;4934446;28;20237;-71
2023/01/22 14:10:40;;;;;;;0.20;0.20;;;;;;;;;;4931987;28;20055;-71
2023/01/22 14:13:10;;;;;;;0.20;0.20;;;;;;;;;;4933611;28;20655;-71
2023/01/22 14:15:37;;;;;;;0.20;0.20;;;;;;;;;;4931066;28;20069;-71
2023/01/22 14:18:06;;;;;;;0.20;0.20;;;;;;;;;;4932108;28;20128;-71
2023/01/22 14:20:32;;;;;;;0.20;0.20;;;;;;;;;;4930401;28;20186;-71
2023/01/22 14:22:58;;;;;;;0.10;0.10;;;;;;;;;;4932289;28;20676;-71
2023/01/22 14:25:24;;;;;;;0.10;0.10;;;;;;;;;;4932228;28;20067;-71
2023/01/22 14:27:50;;;;;;;0.10;0.10;;;;;;;;;;4933564;28;20055;-71
2023/01/22 14:30:19;;;;;;;0.20;0.20;;;;;;;;;;4932728;28;21000;-71
2023/01/22 14:32:45;;;;;;;0.20;0.20;;;;;;;;;;4930824;28;20063;-72
2023/01/22 14:35:16;;;;;;;0.20;0.20;;;;;;;;;;4928338;28;20058;-72
2023/01/22 14:37:45;;;;;;;0.15;0.15;;;;;;;;;;4932159;28;20775;-72
2023/01/22 14:40:12;;;;;;;0.20;0.20;;;;;;;;;;4931389;28;20055;-72
2023/01/22 14:42:38;;;;;;;0.20;0.20;;;;;;;;;;4930041;28;20155;-71
2023/01/22 14:45:05;;;;;;;0.10;0.10;;;;;;;;;;4930937;28;20624;-71
2023/01/22 14:47:31;;;;;;;0.10;0.10;;;;;;;;;;4930116;28;20784;-70
2023/01/22 14:49:57;;;;;;;0.10;0.10;;;;;;;;;;4931051;28;20078;-71
2023/01/22 14:52:24;;;;;;;0.20;0.20;;;;;;;;;;4932104;28;20494;-71
2023/01/22 14:54:50;;;;;;;0.10;0.10;;;;;;;;;;4923794;28;20255;-71
2023/01/22 14:57:16;;;;;;;0.20;0.20;;;;;;;;;;4935110;28;20058;-71
2023/01/22 14:59:42;;;;;;;0.20;0.20;;;;;;;;;;4931427;28;20475;-72
2023/01/22 15:02:09;;;;;;;0.10;0.10;;;;;;;;;;4934135;28;20058;-71